Time;durP1;ratioP1;P1;durP2;ratioP2;P2;SDS_P1;SDS_P2;PMS_P1;PMS_P2;Temp;Humidity;BMP_temperature;BMP_pressure;BME280_temperature;BME280_humidity;BME280_pressure;Samples;Min_cycle;Max_cycle;Signal;HPM_P1;HPM_P2
2022/01/19 00:00:19;;;;;;;;;;;;;;;22.56;39.08;102957.41;7286876;19;151782;-51
2022/01/19 00:02:51;;;;;;;;;;;;;;;22.57;38.99;102962.78;7287380;19;152571;-52
2022/01/19 00:05:24;;;;;;;;;;;;;;;22.58;39.15;102946.69;7284717;19;153252;-52
2022/01/19 00:08:17;;;;;;;;;;;;;;;22.58;38.87;102944.72;7284173;19;152123;-52
2022/01/19 00:11:00;;;;;;;;;;;;;;;22.58;38.80;102935.41;7286498;19;151965;-53
2022/01/19 00:13:33;;;;;;;;;;;;;;;22.56;38.78;102946.97;7284090;19;152299;-52
2022/01/19 00:16:03;;;;;;;;;;;;;;;22.55;38.70;102948.09;7294403;19;151864;-52
2022/01/19 00:18:37;;;;;;;;;;;;;;;22.53;39.02;102950.31;7282691;19;152670;-52
2022/01/19 00:21:09;;;;;;;;;;;;;;;22.53;39.09;102950.31;7286379;19;152024;-52
2022/01/19 00:23:42;;;;;;;;;;;;;;;22.50;38.55;102953.69;7286622;19;152120;-52
2022/01/19 00:26:28;;;;;;;;;;;;;;;22.48;38.74;102957.91;7285371;19;152792;-52
2022/01/19 00:28:58;;;;;;;;;;;;;;;22.47;38.79;102950.59;7284484;19;152029;-51
2022/01/19 00:31:36;;;;;;;;;;;;;;;22.45;38.61;102955.63;7285344;19;153458;-52
2022/01/19 00:34:24;;;;;;;;;;;;;;;22.42;38.67;102942.94;7283509;19;152800;-52
2022/01/19 00:37:18;;;;;;;;;;;;;;;22.40;38.90;102939.53;7293950;19;152265;-51
2022/01/19 00:39:49;;;;;;;;;;;;;;;22.38;38.87;102924.91;7281917;19;152414;-51
2022/01/19 00:42:25;;;;;;;;;;;;;;;22.36;38.64;102906.56;7285678;19;151896;-51
2022/01/19 00:44:54;;;;;;;;;;;;;;;22.33;38.63;102899.53;7284529;19;152067;-51
2022/01/19 00:47:21;;;;;;;;;;;;;;;22.31;38.52;102892.44;7284403;19;152270;-52
2022/01/19 00:49:54;;;;;;;;;;;;;;;22.30;38.98;102890.78;7285190;19;151819;-51
2022/01/19 00:52:39;;;;;;;;;;;;;;;22.26;38.77;102881.19;7282739;19;152103;-51
2022/01/19 00:55:11;;;;;;;;;;;;;;;22.23;38.91;102873.25;7282280;19;152517;-51
2022/01/19 00:57:50;;;;;;;;;;;;;;;22.20;39.11;102866.22;7285448;19;152129;-52
2022/01/19 01:00:22;;;;;;;;;;;;;;;22.18;39.16;102885.34;7291873;19;151637;-52
2022/01/19 01:02:54;;;;;;;;;;;;;;;22.16;39.66;102888.47;7285313;19;151893;-52
2022/01/19 01:05:29;;;;;;;;;;;;;;;22.13;39.85;102886.16;7283809;19;151968;-52
2022/01/19 01:07:58;;;;;;;;;;;;;;;22.11;39.98;102887.56;7282842;19;152177;-51
2022/01/19 01:10:25;;;;;;;;;;;;;;;22.10;39.61;102883.06;7285327;19;152184;-52
2022/01/19 01:12:56;;;;;;;;;;;;;;;22.07;40.04;102892.06;7284904;19;153315;-52
2022/01/19 01:16:00;;;;;;;;;;;;;;;22.04;39.87;102895.38;7283546;19;153052;-52
2022/01/19 01:21:53;;;;;;;;;;;;;;;21.99;39.84;102875.66;7284092;19;152048;-52
2022/01/19 01:24:22;;;;;;;;;;;;;;;21.95;40.15;102878.16;7290840;19;152694;-52
2022/01/19 01:26:49;;;;;;;;;;;;;;;21.94;40.26;102878.47;7282351;19;153193;-52
2022/01/19 01:29:16;;;;;;;;;;;;;;;21.90;40.45;102871.63;7283688;19;154076;-51
2022/01/19 01:31:43;;;;;;;;;;;;;;;21.87;40.62;102858.94;7284863;19;151984;-51
2022/01/19 01:34:19;;;;;;;;;;;;;;;21.86;40.72;102840.34;7285485;19;152573;-51
2022/01/19 01:37:15;;;;;;;;;;;;;;;21.81;40.77;102829.06;7279668;19;153828;-51
2022/01/19 01:39:52;;;;;;;;;;;;;;;21.78;40.98;102834.41;7282291;19;152311;-51
2022/01/19 01:42:25;;;;;;;;;;;;;;;21.74;40.61;102834.09;7284525;19;152299;-52
2022/01/19 01:44:58;;;;;;;;;;;;;;;21.70;41.07;102830.97;7280477;19;152394;-51
2022/01/19 01:47:26;;;;;;;;;;;;;;;21.68;41.12;102843.59;7291969;19;151826;-52
2022/01/19 01:55:10;;;;;;;;;;;;;;;21.56;41.20;102841.00;7283921;19;152596;-52
2022/01/19 01:57:36;;;;;;;;;;;;;;;21.54;41.21;102851.66;7280616;19;153200;-52
2022/01/19 02:00:05;;;;;;;;;;;;;;;21.50;40.99;102850.50;7280975;19;151784;-52
2022/01/19 02:02:47;;;;;;;;;;;;;;;21.48;41.43;102837.84;7282783;19;153182;-52
2022/01/19 02:05:22;;;;;;;;;;;;;;;21.45;41.15;102825.16;7282146;19;153502;-52
2022/01/19 02:08:18;;;;;;;;;;;;;;;21.43;41.25;102829.34;7280752;19;151584;-51
2022/01/19 02:11:35;;;;;;;;;;;;;;;21.37;41.27;102831.28;7289931;19;152840;-51
2022/01/19 02:23:17;;;;;;;;;;;;;;;21.20;41.70;102782.78;7282584;19;152114;-52
2022/01/19 02:25:55;;;;;;;;;;;;;;;21.17;41.87;102778.53;7283220;19;151847;-52
2022/01/19 02:42:38;;;;;;;;;;;;;;;20.98;41.87;102735.06;7280808;19;153955;-52
2022/01/19 02:49:59;;;;;;;;;;;;;;;20.86;42.29;102715.56;7280513;19;152856;-51
2022/01/19 02:52:25;;;;;;;;;;;;;;;20.82;42.24;102708.78;7280477;19;152076;-52
2022/01/19 02:54:52;;;;;;;;;;;;;;;20.81;42.22;102712.69;7280037;19;153645;-52
2022/01/19 02:57:24;;;;;;;;;;;;;;;20.76;41.97;102698.59;7288129;19;154039;-52
2022/01/19 03:11:03;;;;;;;;;;;;;;;20.65;42.28;102685.59;7287430;19;152816;-52
2022/01/19 03:13:34;;;;;;;;;;;;;;;20.64;42.23;102672.66;7287729;19;152179;-52
2022/01/19 03:16:03;;;;;;;;;;;;;;;20.59;42.28;102669.81;7287400;19;152160;-52
2022/01/19 03:18:30;;;;;;;;;;;;;;;20.58;42.36;102673.72;7286621;19;154107;-52
2022/01/19 03:21:18;;;;;;;;;;;;;;;20.55;42.60;102667.81;7291899;19;152057;-52
2022/01/19 03:24:01;;;;;;;;;;;;;;;20.50;42.42;102677.03;7283177;19;153314;-51
2022/01/19 03:26:30;;;;;;;;;;;;;;;20.52;42.30;102674.81;7285832;19;151740;-52
2022/01/19 03:28:57;;;;;;;;;;;;;;;20.47;42.57;102677.56;7287875;19;153415;-52
2022/01/19 03:31:24;;;;;;;;;;;;;;;20.45;42.65;102668.56;7287285;19;153739;-51
2022/01/19 03:33:50;;;;;;;;;;;;;;;20.42;42.75;102660.66;7285134;19;151563;-51
2022/01/19 03:36:20;;;;;;;;;;;;;;;20.40;42.75;102668.50;7284953;19;153338;-52
2022/01/19 03:38:47;;;;;;;;;;;;;;;20.38;42.34;102659.50;7286688;19;153319;-51
2022/01/19 03:41:14;;;;;;;;;;;;;;;20.34;42.67;102645.16;7287411;19;152072;-51
2022/01/19 03:43:40;;;;;;;;;;;;;;;20.32;42.87;102644.56;7292554;19;152590;-52
2022/01/19 03:46:13;;;;;;;;;;;;;;;20.30;42.56;102641.19;7289270;19;152156;-52
2022/01/19 03:49:27;;;;;;;;;;;;;;;20.27;42.40;102638.03;7287263;19;153525;-52
2022/01/19 03:51:28;;;;;;;;;;;;;;;20.23;42.90;102632.09;7284901;19;153233;-52
2022/01/19 03:53:55;;;;;;;;;;;;;;;20.22;42.82;102623.94;7286461;19;151980;-52
2022/01/19 03:56:22;;;;;;;;;;;;;;;20.19;42.64;102628.13;7287081;19;153687;-52
2022/01/19 03:58:58;;;;;;;;;;;;;;;20.17;42.50;102621.91;7284597;19;153948;-52
2022/01/19 04:01:47;;;;;;;;;;;;;;;20.13;42.94;102615.16;7286834;19;151932;-51
2022/01/19 04:10:39;;;;;;;;;;;;;;;20.07;42.91;102609.75;7284311;19;152030;-51
2022/01/19 04:13:43;;;;;;;;;;;;;;;20.05;42.94;102612.81;7284378;19;153329;-51
2022/01/19 04:16:45;;;;;;;;;;;;;;;20.02;43.12;102612.50;7286390;19;151768;-51
2022/01/19 04:19:43;;;;;;;;;;;;;;;19.99;43.01;102616.69;7279364;19;152061;-51
2022/01/19 04:22:28;;;;;;;;;;;;;;;19.97;43.35;102619.78;7283554;19;154105;-51
2022/01/19 04:24:55;;;;;;;;;;;;;;;19.94;43.13;102605.44;7285864;19;152022;-51
2022/01/19 04:27:37;;;;;;;;;;;;;;;19.91;43.30;102603.97;7286429;19;153195;-51
2022/01/19 04:30:11;;;;;;;;;;;;;;;19.89;42.99;102597.81;7283536;19;154569;-51
2022/01/19 04:35:43;;;;;;;;;;;;;;;19.85;43.54;102587.38;7284613;19;153006;-51
2022/01/19 04:54:05;;;;;;;;;;;;;;;19.75;43.74;102598.47;7283572;19;154664;-51
2022/01/19 04:54:52;;;;;;;;;;;;;;;19.71;43.74;102594.50;7285136;19;152157;-52
2022/01/19 05:03:12;;;;;;;;;;;;;;;19.63;43.64;102576.16;7285709;19;153862;-51
2022/01/19 05:05:48;;;;;;;;;;;;;;;19.61;43.69;102574.75;7283516;19;153928;-51
2022/01/19 05:08:44;;;;;;;;;;;;;;;19.59;43.76;102565.75;7284036;19;151714;-51
2022/01/19 05:13:52;;;;;;;;;;;;;;;19.57;43.98;102559.56;7283046;19;152148;-52
2022/01/19 05:16:20;;;;;;;;;;;;;;;19.54;44.11;102550.56;7285229;19;152069;-51
2022/01/19 05:18:47;;;;;;;;;;;;;;;19.52;44.01;102547.19;7291659;19;153513;-51
2022/01/19 05:21:14;;;;;;;;;;;;;;;19.53;44.07;102542.44;7282912;19;153675;-51
2022/01/19 05:23:41;;;;;;;;;;;;;;;19.55;44.42;102543.00;7284808;19;152858;-51
2022/01/19 05:26:08;;;;;;;;;;;;;;;19.58;44.85;102538.84;7283388;19;153808;-52
2022/01/19 05:28:35;;;;;;;;;;;;;;;19.61;44.83;102544.75;7283756;19;152137;-51
2022/01/19 05:31:02;;;;;;;;;;;;;;;19.63;44.99;102534.09;7285045;19;153133;-51
2022/01/19 05:33:29;;;;;;;;;;;;;;;19.66;45.17;102533.59;7281099;19;153899;-51
2022/01/19 05:35:56;;;;;;;;;;;;;;;19.70;45.97;102531.13;7284704;19;152121;-51
2022/01/19 05:38:23;;;;;;;;;;;;;;;19.74;45.86;102523.84;7285671;19;152593;-52
2022/01/19 05:40:49;;;;;;;;;;;;;;;19.77;45.91;102518.56;7289168;19;153643;-52
2022/01/19 05:43:16;;;;;;;;;;;;;;;19.85;46.81;102518.06;7284616;19;153389;-52
2022/01/19 05:45:57;;;;;;;;;;;;;;;19.90;47.04;102512.50;7281757;19;153486;-52
2022/01/19 05:48:38;;;;;;;;;;;;;;;19.96;46.43;102511.47;7282470;19;151868;-52
2022/01/19 05:51:10;;;;;;;;;;;;;;;20.03;46.52;102496.38;7284230;19;154172;-52
2022/01/19 05:53:42;;;;;;;;;;;;;;;20.10;46.29;102494.19;7282908;19;154529;-52
2022/01/19 05:56:11;;;;;;;;;;;;;;;20.16;46.05;102484.69;7283655;19;152263;-51
2022/01/19 05:58:38;;;;;;;;;;;;;;;20.22;45.59;102484.44;7284365;19;153285;-52
2022/01/19 06:01:05;;;;;;;;;;;;;;;20.29;45.52;102489.84;7281191;19;154114;-52
2022/01/19 06:03:33;;;;;;;;;;;;;;;20.35;45.42;102488.81;7291551;19;152162;-52
2022/01/19 06:06:00;;;;;;;;;;;;;;;20.41;45.35;102473.69;7281313;19;153894;-52
2022/01/19 06:10:55;;;;;;;;;;;;;;;20.52;44.51;102485.81;7282774;19;152033;-51
2022/01/19 06:13:22;;;;;;;;;;;;;;;20.57;44.80;102483.91;7282793;19;153196;-52
2022/01/19 06:15:49;;;;;;;;;;;;;;;20.63;44.89;102480.00;7283492;19;151876;-52
2022/01/19 06:18:17;;;;;;;;;;;;;;;20.68;44.99;102474.41;7282736;19;153442;-52
2022/01/19 06:20:45;;;;;;;;;;;;;;;20.74;44.54;102475.28;7280393;19;154414;-52
2022/01/19 06:23:11;;;;;;;;;;;;;;;20.79;44.56;102466.88;7283185;19;151780;-52
2022/01/19 06:25:38;;;;;;;;;;;;;;;20.84;44.50;102450.06;7289610;19;153377;-51
2022/01/19 06:28:04;;;;;;;;;;;;;;;20.89;44.10;102443.63;7283517;19;151764;-51
2022/01/19 06:30:31;;;;;;;;;;;;;;;20.93;44.03;102431.56;7283336;19;153144;-51
2022/01/19 06:32:58;;;;;;;;;;;;;;;20.98;43.91;102425.13;7282260;19;153845;-51
2022/01/19 06:35:25;;;;;;;;;;;;;;;21.02;43.52;102415.00;7282427;19;151905;-51
2022/01/19 06:37:51;;;;;;;;;;;;;;;21.07;43.99;102427.13;7284263;19;152697;-51
2022/01/19 06:40:20;;;;;;;;;;;;;;;21.11;43.99;102418.97;7280831;19;154019;-51
2022/01/19 06:42:47;;;;;;;;;;;;;;;21.16;43.66;102410.59;7283730;19;151747;-52
2022/01/19 06:45:14;;;;;;;;;;;;;;;21.19;43.45;102399.63;7288956;19;153697;-51
2022/01/19 06:47:40;;;;;;;;;;;;;;;21.23;43.35;102385.84;7292272;19;154026;-51
2022/01/19 06:50:09;;;;;;;;;;;;;;;21.28;42.83;102386.72;7288491;19;153233;-51
2022/01/19 06:52:36;;;;;;;;;;;;;;;21.33;43.00;102399.94;7287610;19;154628;-51
2022/01/19 06:55:05;;;;;;;;;;;;;;;21.37;42.99;102417.94;7289411;19;151861;-51
2022/01/19 06:57:34;;;;;;;;;;;;;;;21.41;42.59;102419.06;7285766;19;153485;-51
2022/01/19 07:00:14;;;;;;;;;;;;;;;21.45;43.00;102430.59;7287127;19;152602;-51
2022/01/19 07:02:54;;;;;;;;;;;;;;;21.49;42.50;102421.31;7288606;19;151992;-52
2022/01/19 07:05:37;;;;;;;;;;;;;;;21.53;42.88;102405.56;7284846;19;151854;-52
2022/01/19 07:08:04;;;;;;;;;;;;;;;21.57;42.58;102403.06;7287082;19;153559;-52
2022/01/19 07:10:31;;;;;;;;;;;;;;;21.61;42.71;102401.38;7296054;19;152552;-51
2022/01/19 07:12:59;;;;;;;;;;;;;;;21.64;42.61;102406.44;7287461;19;154267;-51
2022/01/19 07:15:26;;;;;;;;;;;;;;;21.68;42.72;102407.56;7288376;19;151913;-51
2022/01/19 07:17:52;;;;;;;;;;;;;;;21.70;42.52;102389.28;7288375;19;152799;-51
2022/01/19 07:20:19;;;;;;;;;;;;;;;21.74;42.67;102393.22;7286611;19;153840;-52
2022/01/19 07:22:47;;;;;;;;;;;;;;;21.78;42.32;102389.84;7288408;19;151590;-52
2022/01/19 07:25:15;;;;;;;;;;;;;;;21.80;42.50;102380.00;7287839;19;153498;-51
2022/01/19 07:27:42;;;;;;;;;;;;;;;21.83;42.22;102376.63;7287367;19;153674;-51
2022/01/19 07:30:10;;;;;;;;;;;;;;;21.87;42.34;102371.25;7294635;19;152737;-52
2022/01/19 07:32:37;;;;;;;;;;;;;;;21.89;42.27;102383.09;7286786;19;154052;-52
2022/01/19 07:35:04;;;;;;;;;;;;;;;21.92;42.50;102389.00;7287794;19;151925;-52
2022/01/19 07:37:31;;;;;;;;;;;;;;;21.96;42.63;102387.31;7287357;19;153368;-52
2022/01/19 07:39:59;;;;;;;;;;;;;;;21.99;42.34;102391.53;7286116;19;153852;-52
2022/01/19 07:42:26;;;;;;;;;;;;;;;22.01;42.43;102392.09;7285280;19;151660;-52
2022/01/19 07:44:53;;;;;;;;;;;;;;;22.03;42.38;102396.31;7287519;19;153466;-52
2022/01/19 07:47:20;;;;;;;;;;;;;;;22.05;42.22;102399.69;7286235;19;154554;-52
2022/01/19 07:49:47;;;;;;;;;;;;;;;22.09;42.25;102399.97;7287652;19;151865;-52
2022/01/19 07:52:14;;;;;;;;;;;;;;;22.12;41.94;102396.59;7293555;19;153371;-52
2022/01/19 07:54:41;;;;;;;;;;;;;;;22.14;41.73;102388.69;7284782;19;152417;-52
2022/01/19 07:57:07;;;;;;;;;;;;;;;22.16;42.09;102386.47;7287076;19;153382;-52
2022/01/19 07:59:34;;;;;;;;;;;;;;;22.17;42.04;102380.53;7284233;19;153886;-52
2022/01/19 08:02:03;;;;;;;;;;;;;;;22.21;41.95;102380.81;7286277;19;151561;-52
2022/01/19 08:04:36;;;;;;;;;;;;;;;22.27;41.45;102370.38;7285623;19;153341;-53
2022/01/19 08:07:05;;;;;;;;;;;;;;;22.26;40.93;102379.97;7285768;19;153968;-54
2022/01/19 08:09:43;;;;;;;;;;;;;;;22.21;40.01;102377.16;7284921;19;152190;-53
2022/01/19 08:12:28;;;;;;;;;;;;;;;22.09;37.20;102386.75;7283664;19;151957;-52
2022/01/19 08:15:10;;;;;;;;;;;;;;;22.07;37.91;102365.66;7289106;19;153021;-52
2022/01/19 08:17:37;;;;;;;;;;;;;;;22.06;37.77;102363.94;7287809;19;153400;-53
2022/01/19 08:20:04;;;;;;;;;;;;;;;22.04;38.01;102388.72;7284441;19;153628;-52
2022/01/19 08:22:31;;;;;;;;;;;;;;;22.02;37.94;102388.16;7285133;19;152136;-53
2022/01/19 08:24:58;;;;;;;;;;;;;;;21.99;38.10;102392.38;7282625;19;153362;-52
2022/01/19 08:27:24;;;;;;;;;;;;;;;21.96;37.66;102389.28;7284982;19;152514;-52
2022/01/19 08:29:51;;;;;;;;;;;;;;;21.94;38.02;102389.56;7286891;19;151685;-53
2022/01/19 08:32:18;;;;;;;;;;;;;;;21.92;37.95;102374.91;7286560;19;153422;-53
2022/01/19 08:34:58;;;;;;;;;;;;;;;21.88;37.96;102375.75;7283058;19;153909;-53
2022/01/19 08:37:25;;;;;;;;;;;;;;;21.86;37.86;102373.22;7294545;19;152108;-53
2022/01/19 08:39:52;;;;;;;;;;;;;;;21.82;38.10;102376.88;7286554;19;153223;-52
2022/01/19 08:42:19;;;;;;;;;;;;;;;21.80;38.20;102377.19;7285038;19;151872;-53
2022/01/19 08:44:51;;;;;;;;;;;;;;;21.78;37.82;102381.38;7287233;19;153560;-53
2022/01/19 08:47:18;;;;;;;;;;;;;;;21.74;37.99;102389.56;7283047;19;153643;-53
2022/01/19 08:49:52;;;;;;;;;;;;;;;21.70;37.82;102383.66;7284582;19;151957;-52
2022/01/19 08:52:20;;;;;;;;;;;;;;;21.67;37.96;102378.56;7267216;19;153583;-53
2022/01/19 08:54:47;;;;;;;;;;;;;;;21.63;37.90;102394.31;7271211;19;153954;-53
2022/01/19 08:57:14;;;;;;;;;;;;;;;21.61;38.04;102396.59;7284593;19;152339;-52
2022/01/19 08:59:41;;;;;;;;;;;;;;;21.56;38.18;102393.78;7292917;19;153052;-52
2022/01/19 09:02:13;;;;;;;;;;;;;;;21.54;37.97;102389.53;7284941;19;153374;-53
2022/01/19 09:04:39;;;;;;;;;;;;;;;21.51;37.87;102387.28;7283656;19;152687;-53
2022/01/19 09:07:06;;;;;;;;;;;;;;;21.48;38.34;102380.28;7283979;19;153334;-53
2022/01/19 09:09:33;;;;;;;;;;;;;;;21.47;38.14;102377.75;7282946;19;152189;-53
2022/01/19 09:12:01;;;;;;;;;;;;;;;21.45;38.02;102380.81;7285278;19;152342;-53
2022/01/19 09:14:34;;;;;;;;;;;;;;;21.43;38.18;102385.91;7284921;19;152668;-52
2022/01/19 09:17:30;;;;;;;;;;;;;;;21.41;38.27;102384.47;7283673;19;152060;-52
2022/01/19 09:20:12;;;;;;;;;;;;;;;21.38;37.87;102380.25;7283709;19;151698;-53
2022/01/19 09:23:04;;;;;;;;;;;;;;;21.37;38.29;102374.91;7289330;19;151966;-54
2022/01/19 09:25:41;;;;;;;;;;;;;;;21.35;38.21;102368.75;7284882;19;151702;-51
2022/01/19 09:28:11;;;;;;;;;;;;;;;21.33;38.14;102371.81;7281815;19;153174;-52
2022/01/19 09:30:40;;;;;;;;;;;;;;;21.30;38.21;102366.75;7282914;19;151978;-52
2022/01/19 09:33:09;;;;;;;;;;;;;;;21.28;37.75;102369.00;7285315;19;152606;-52
2022/01/19 09:38:19;;;;;;;;;;;;;;;21.21;37.77;102362.81;7284990;19;152038;-54
2022/01/19 09:40:46;;;;;;;;;;;;;;;21.19;38.17;102357.47;7284330;19;153646;-53
2022/01/19 09:43:14;;;;;;;;;;;;;;;21.16;38.21;102360.84;7288818;19;155832;-54
2022/01/19 09:45:43;;;;;;;;;;;;;;;21.15;38.09;102349.88;7283831;19;152820;-54
2022/01/19 09:48:10;;;;;;;;;;;;;;;21.16;38.29;102354.38;7283562;19;153200;-53
2022/01/19 09:50:38;;;;;;;;;;;;;;;21.13;38.26;102354.91;7284023;19;152044;-54
2022/01/19 09:53:05;;;;;;;;;;;;;;;21.15;37.90;102369.53;7281260;19;153879;-53
2022/01/19 09:55:32;;;;;;;;;;;;;;;21.16;38.11;102360.84;7273016;19;153329;-54
2022/01/19 09:58:00;;;;;;;;;;;;;;;21.18;37.92;102364.19;7282010;19;152097;-54
2022/01/19 10:00:29;;;;;;;;;;;;;;;21.21;38.36;102357.19;7283147;19;152644;-53
2022/01/19 10:03:10;;;;;;;;;;;;;;;21.23;38.18;102358.59;7277246;19;152067;-54
2022/01/19 10:05:41;;;;;;;;;;;;;;;21.26;37.88;102365.59;7290381;19;151706;-54
2022/01/19 10:08:08;;;;;;;;;;;;;;;21.27;38.27;102356.91;7280424;19;154057;-54
2022/01/19 10:10:35;;;;;;;;;;;;;;;21.29;37.87;102354.66;7283213;19;152406;-53
2022/01/19 10:18:26;;;;;;;;;;;;;;;21.34;38.08;102345.41;7279104;19;152236;-53
2022/01/19 10:21:02;;;;;;;;;;;;;;;21.36;38.20;102348.75;7280920;19;152828;-54
2022/01/19 10:23:36;;;;;;;;;;;;;;;21.37;37.84;102352.41;7276859;19;153777;-53
2022/01/19 10:26:11;;;;;;;;;;;;;;;21.37;37.51;102344.81;7282650;19;151863;-53
2022/01/19 10:28:48;;;;;;;;;;;;;;;21.38;37.53;102346.53;7288665;19;152969;-53
2022/01/19 10:31:18;;;;;;;;;;;;;;;21.38;37.46;102349.34;7282868;19;151841;-53
2022/01/19 10:34:05;;;;;;;;;;;;;;;21.39;37.65;102359.47;7283372;19;152294;-53
2022/01/19 10:36:43;;;;;;;;;;;;;;;21.40;37.77;102357.47;7278533;19;152807;-53
2022/01/19 10:39:10;;;;;;;;;;;;;;;21.39;37.41;102370.72;7282609;19;152101;-53
2022/01/19 10:41:57;;;;;;;;;;;;;;;21.39;37.34;102355.81;7280123;19;153525;-53
2022/01/19 10:44:27;;;;;;;;;;;;;;;21.37;37.32;102356.06;7278871;19;153833;-54
2022/01/19 10:47:17;;;;;;;;;;;;;;;21.39;37.72;102350.19;7280774;19;151771;-53
2022/01/19 10:49:47;;;;;;;;;;;;;;;21.37;37.57;102346.78;7280061;19;152724;-53
2022/01/19 10:52:29;;;;;;;;;;;;;;;21.37;37.44;102349.59;7285964;19;153882;-53
2022/01/19 10:54:57;;;;;;;;;;;;;;;21.35;37.47;102351.88;7277910;19;152808;-54
2022/01/19 10:57:25;;;;;;;;;;;;;;;21.32;37.58;102347.63;7272690;19;153698;-53
2022/01/19 11:00:08;;;;;;;;;;;;;;;21.31;37.65;102354.38;7277938;19;152400;-53
2022/01/19 11:02:37;;;;;;;;;;;;;;;21.30;37.41;102349.91;7278026;19;152803;-53
2022/01/19 11:05:05;;;;;;;;;;;;;;;21.27;37.76;102342.00;7278635;19;153968;-53
2022/01/19 11:07:32;;;;;;;;;;;;;;;21.23;37.46;102336.09;7278796;19;151982;-53
2022/01/19 11:10:08;;;;;;;;;;;;;;;21.22;37.31;102347.63;7280161;19;152835;-53
2022/01/19 11:12:45;;;;;;;;;;;;;;;21.21;37.74;102340.34;7278123;19;153237;-53
2022/01/19 11:15:13;;;;;;;;;;;;;;;21.19;37.35;102331.31;7284083;19;151989;-52
2022/01/19 11:17:40;;;;;;;;;;;;;;;21.15;37.42;102333.00;7274851;19;154677;-53
2022/01/19 11:20:11;;;;;;;;;;;;;;;21.12;37.74;102325.91;7277724;19;152632;-52
2022/01/19 11:22:48;;;;;;;;;;;;;;;21.10;37.77;102332.97;7278022;19;153662;-53
2022/01/19 11:25:24;;;;;;;;;;;;;;;21.08;37.84;102321.97;7278750;19;153452;-53
2022/01/19 11:28:11;;;;;;;;;;;;;;;21.05;37.53;102300.06;7279098;19;151918;-53
2022/01/19 11:30:45;;;;;;;;;;;;;;;21.01;37.82;102306.53;7282205;19;155290;-54
2022/01/19 11:33:16;;;;;;;;;;;;;;;20.97;37.89;102306.25;7283753;19;153926;-53
2022/01/19 11:35:45;;;;;;;;;;;;;;;20.95;37.81;102296.38;7293157;19;151924;-54
2022/01/19 11:38:22;;;;;;;;;;;;;;;20.93;37.56;102279.84;7284172;19;153939;-53
2022/01/19 11:40:48;;;;;;;;;;;;;;;20.91;37.78;102268.03;7284109;19;151889;-53
2022/01/19 11:43:16;;;;;;;;;;;;;;;20.92;37.72;102266.91;7284620;19;152718;-53
2022/01/19 11:45:43;;;;;;;;;;;;;;;20.90;37.52;102248.63;7286682;19;153108;-54
2022/01/19 11:48:12;;;;;;;;;;;;;;;20.87;37.67;102255.66;7285768;19;151866;-54
2022/01/19 11:50:39;;;;;;;;;;;;;;;20.83;38.05;102255.38;7283333;19;153900;-54
2022/01/19 11:53:10;;;;;;;;;;;;;;;20.81;38.13;102251.13;7284127;19;154167;-53
2022/01/19 11:55:39;;;;;;;;;;;;;;;20.78;38.03;102251.72;7282192;19;151921;-54
2022/01/19 11:58:15;;;;;;;;;;;;;;;20.76;37.95;102245.50;7286777;19;154052;-53
2022/01/19 12:00:43;;;;;;;;;;;;;;;20.74;38.13;102245.81;7286726;19;152006;-53
2022/01/19 12:03:21;;;;;;;;;;;;;;;20.72;37.82;102247.19;7285500;19;154107;-53
2022/01/19 12:06:08;;;;;;;;;;;;;;;20.68;38.17;102248.88;7284597;19;153323;-53
2022/01/19 12:08:37;;;;;;;;;;;;;;;20.64;38.07;102237.34;7284478;19;152054;-53
2022/01/19 12:11:14;;;;;;;;;;;;;;;20.61;38.23;102232.31;7286670;19;152837;-53
2022/01/19 12:16:19;;;;;;;;;;;;;;;20.54;38.35;102234.53;7283895;19;151598;-53
2022/01/19 12:18:55;;;;;;;;;;;;;;;20.53;38.37;102216.00;7283527;19;153510;-53
2022/01/19 12:21:29;;;;;;;;;;;;;;;20.53;38.54;102223.59;7289666;19;152189;-53
2022/01/19 12:24:22;;;;;;;;;;;;;;;20.54;38.71;102217.66;7281584;19;155053;-53
2022/01/19 12:26:51;;;;;;;;;;;;;;;20.57;38.78;102216.28;7283532;19;154182;-53
2022/01/19 12:29:27;;;;;;;;;;;;;;;20.58;38.96;102207.56;7284739;19;152207;-53
2022/01/19 12:31:54;;;;;;;;;;;;;;;20.60;38.74;102208.16;7285487;19;154255;-53
2022/01/19 12:34:21;;;;;;;;;;;;;;;20.63;38.65;102201.97;7282624;19;153278;-53
2022/01/19 12:36:48;;;;;;;;;;;;;;;20.67;39.07;102200.28;7284080;19;152486;-53
2022/01/19 12:39:25;;;;;;;;;;;;;;;20.71;39.09;102197.78;7283154;19;152075;-53
2022/01/19 12:41:53;;;;;;;;;;;;;;;20.75;38.67;102202.56;7283142;19;153366;-54
2022/01/19 12:44:30;;;;;;;;;;;;;;;20.79;39.03;102206.50;7289135;19;153021;-53
2022/01/19 12:46:57;;;;;;;;;;;;;;;20.83;39.06;102207.63;7282296;19;153696;-53
2022/01/19 12:49:27;;;;;;;;;;;;;;;20.86;39.10;102195.81;7282704;19;152308;-52
2022/01/19 12:51:55;;;;;;;;;;;;;;;20.92;38.74;102195.81;7284321;19;152828;-53
2022/01/19 12:54:27;;;;;;;;;;;;;;;20.96;38.87;102208.19;7282471;19;154258;-53
2022/01/19 12:56:57;;;;;;;;;;;;;;;21.00;38.91;102189.63;7281497;19;152419;-53
2022/01/19 12:59:28;;;;;;;;;;;;;;;21.03;38.67;102187.09;7279967;19;154041;-53
2022/01/19 13:01:55;;;;;;;;;;;;;;;21.05;38.95;102198.06;7284306;19;153415;-54
2022/01/19 13:04:24;;;;;;;;;;;;;;;21.07;38.67;102198.63;7278763;19;152066;-54
2022/01/19 13:06:55;;;;;;;;;;;;;;;21.09;38.54;102202.00;7289222;19;152085;-53
2022/01/19 13:09:34;;;;;;;;;;;;;;;21.13;38.50;102214.38;7278857;19;151884;-53
2022/01/19 13:12:11;;;;;;;;;;;;;;;21.14;38.53;102213.25;7282880;19;152857;-52
2022/01/19 13:14:41;;;;;;;;;;;;;;;21.15;38.46;102224.22;7280820;19;153011;-53
2022/01/19 13:17:08;;;;;;;;;;;;;;;21.16;38.69;102227.91;7282010;19;152691;-53
2022/01/19 13:20:06;;;;;;;;;;;;;;;21.15;38.53;102221.44;7281261;19;152095;-54
2022/01/19 13:22:42;;;;;;;;;;;;;;;21.16;38.61;102216.66;7279101;19;155191;-54
2022/01/19 13:25:14;;;;;;;;;;;;;;;21.15;38.77;102207.38;7282602;19;151939;-53
2022/01/19 13:27:42;;;;;;;;;;;;;;;21.17;38.71;102207.06;7280195;19;153682;-53
2022/01/19 13:30:17;;;;;;;;;;;;;;;21.16;38.85;102223.13;7290567;19;154057;-53
2022/01/19 13:32:48;;;;;;;;;;;;;;;21.17;38.88;102226.75;7280766;19;152284;-53
2022/01/19 13:35:16;;;;;;;;;;;;;;;21.15;39.01;102231.81;7283354;19;153816;-54
2022/01/19 13:37:46;;;;;;;;;;;;;;;21.15;38.96;102229.84;7282659;19;151901;-53
2022/01/19 13:40:15;;;;;;;;;;;;;;;21.14;39.01;102230.13;7283688;19;153503;-53
2022/01/19 13:42:43;;;;;;;;;;;;;;;21.13;38.88;102237.72;7279319;19;153475;-53
2022/01/19 13:45:18;;;;;;;;;;;;;;;21.14;39.08;102216.06;7281105;19;151946;-53
2022/01/19 13:47:53;;;;;;;;;;;;;;;21.12;38.97;102213.50;7282399;19;152872;-53
2022/01/19 13:50:20;;;;;;;;;;;;;;;21.12;39.09;102213.50;7285394;19;154148;-53
2022/01/19 13:52:47;;;;;;;;;;;;;;;21.11;39.08;102211.00;7279018;19;152641;-53
2022/01/19 13:55:16;;;;;;;;;;;;;;;21.10;39.04;102207.34;7278539;19;153799;-53
2022/01/19 13:57:43;;;;;;;;;;;;;;;21.09;39.32;102222.50;7280254;19;152818;-53
2022/01/19 14:00:13;;;;;;;;;;;;;;;21.10;39.30;102226.16;7277419;19;153186;-53
2022/01/19 14:02:52;;;;;;;;;;;;;;;21.09;39.01;102216.03;7279898;19;152829;-53
2022/01/19 14:05:35;;;;;;;;;;;;;;;21.07;39.50;102201.44;7281211;19;152082;-53
2022/01/19 14:08:02;;;;;;;;;;;;;;;21.06;39.12;102191.31;7281576;19;153279;-53
2022/01/19 14:10:39;;;;;;;;;;;;;;;21.05;39.49;102193.28;7282344;19;153772;-53
2022/01/19 14:13:15;;;;;;;;;;;;;;;21.04;39.28;102193.56;7287548;19;151844;-53
2022/01/19 14:15:41;;;;;;;;;;;;;;;21.02;39.64;102195.81;7279110;19;154337;-53
2022/01/19 14:18:10;;;;;;;;;;;;;;;21.02;39.70;102212.69;7280662;19;151905;-54
2022/01/19 14:20:37;;;;;;;;;;;;;;;21.02;39.66;102221.13;7278425;19;152723;-53
2022/01/19 14:23:12;;;;;;;;;;;;;;;21.01;39.64;102225.03;7280231;19;154000;-53
2022/01/19 14:25:39;;;;;;;;;;;;;;;21.01;39.44;102216.59;7279056;19;153953;-53